createdAt,value
2023-04-20T00:01:12.677Z,60.19
2023-04-20T00:03:39.839Z,60.32
2023-04-20T00:06:08.079Z,60.42
2023-04-20T00:08:35.436Z,60.31
2023-04-20T00:11:02.364Z,60.28
2023-04-20T00:13:29.262Z,60.23
2023-04-20T00:15:56.303Z,60.28
2023-04-20T00:18:23.172Z,60.14
2023-04-20T00:20:50.102Z,60.02
2023-04-20T00:23:17.093Z,60.03
2023-04-20T00:25:44.425Z,60.10
2023-04-20T00:28:11.238Z,59.95
2023-04-20T00:30:38.204Z,59.94
2023-04-20T00:33:05.171Z,60.02
2023-04-20T00:35:32.222Z,59.99
2023-04-20T00:37:59.194Z,59.85
2023-04-20T00:40:26.185Z,59.97
2023-04-20T00:42:53.155Z,60.01
2023-04-20T00:45:22.328Z,59.90
2023-04-20T00:47:49.426Z,60.01
2023-04-20T00:50:16.416Z,60.10
2023-04-20T00:52:43.593Z,60.01
2023-04-20T00:55:11.392Z,59.94
2023-04-20T00:57:38.783Z,59.93
2023-04-20T01:00:08.529Z,60.03
2023-04-20T01:02:35.699Z,60.01
2023-04-20T01:05:04.205Z,60.13
2023-04-20T01:07:31.257Z,60.16
2023-04-20T01:09:58.246Z,60.05
2023-04-20T01:12:25.803Z,60.18
2023-04-20T01:14:52.722Z,60.21
2023-04-20T01:17:21.041Z,60.36
2023-04-20T01:19:49.228Z,60.21
2023-04-20T01:22:21.359Z,60.19
2023-04-20T01:24:48.358Z,60.14
2023-04-20T01:27:17.223Z,60.09
2023-04-20T01:29:44.945Z,60.13
2023-04-20T01:32:12.550Z,60.13
2023-04-20T01:34:39.627Z,60.00
2023-04-20T01:37:08.432Z,60.04
2023-04-20T01:39:37.229Z,59.99
2023-04-20T01:42:05.045Z,59.92
2023-04-20T01:44:32.254Z,59.93
2023-04-20T01:47:00.038Z,60.02
2023-04-20T01:49:27.134Z,59.94
2023-04-20T01:51:54.305Z,59.92
2023-04-20T01:54:21.880Z,60.07
2023-04-20T01:56:48.805Z,59.99
2023-04-20T01:59:16.411Z,60.05
2023-04-20T02:01:43.523Z,60.04
2023-04-20T02:04:10.450Z,60.01
2023-04-20T02:06:40.187Z,60.15
2023-04-20T02:09:09.682Z,60.08
2023-04-20T02:11:36.669Z,60.16
2023-04-20T02:14:06.044Z,60.18
2023-04-20T02:16:33.129Z,60.26
2023-04-20T02:19:00.319Z,60.25
2023-04-20T02:21:28.161Z,60.26
2023-04-20T02:23:55.098Z,60.59
2023-04-20T02:26:22.267Z,60.63
2023-04-20T02:28:49.166Z,60.40
2023-04-20T02:31:16.101Z,60.47
2023-04-20T02:33:45.243Z,60.35
2023-04-20T02:36:12.214Z,60.31
2023-04-20T02:38:40.471Z,60.33
2023-04-20T02:41:07.699Z,60.19
2023-04-20T02:43:36.389Z,60.17
2023-04-20T02:46:04.063Z,60.20
2023-04-20T02:48:31.125Z,60.16
2023-04-20T02:50:59.006Z,60.20
2023-04-20T02:53:29.017Z,60.18
2023-04-20T02:56:11.640Z,60.29
2023-04-20T02:58:48.878Z,60.24
2023-04-20T03:01:48.683Z,60.18
2023-04-20T03:04:19.521Z,60.21
2023-04-20T03:06:55.060Z,60.40
2023-04-20T03:09:26.381Z,60.27
2023-04-20T03:11:59.110Z,60.17
2023-04-20T03:14:51.925Z,60.21
2023-04-20T03:17:21.782Z,60.24
2023-04-20T03:19:48.970Z,60.29
2023-04-20T03:22:16.160Z,60.25
2023-04-20T03:24:43.441Z,60.39
2023-04-20T03:27:19.997Z,60.47
2023-04-20T03:29:58.488Z,60.92
2023-04-20T03:32:25.643Z,60.91
2023-04-20T03:34:52.745Z,60.89
2023-04-20T03:37:20.539Z,60.76
2023-04-20T03:39:47.553Z,60.64
2023-04-20T03:42:14.450Z,60.74
2023-04-20T03:44:41.760Z,60.52
2023-04-20T03:47:10.345Z,60.58
2023-04-20T03:49:37.473Z,60.38
2023-04-20T03:52:05.180Z,60.38
2023-04-20T03:54:32.300Z,60.53
2023-04-20T03:57:00.700Z,60.44
2023-04-20T03:59:28.219Z,60.44
2023-04-20T04:01:55.226Z,60.43
2023-04-20T04:04:22.878Z,60.51
2023-04-20T04:06:50.544Z,60.43
2023-04-20T04:09:17.741Z,60.46
2023-04-20T04:11:45.876Z,60.43
2023-04-20T04:14:12.870Z,60.48
2023-04-20T04:16:40.084Z,60.52
2023-04-20T04:19:06.968Z,60.43
2023-04-20T04:21:34.786Z,60.64
2023-04-20T04:24:03.715Z,60.77
2023-04-20T04:26:42.751Z,60.84
2023-04-20T04:29:10.639Z,60.95
2023-04-20T04:31:37.807Z,60.90
2023-04-20T04:34:11.264Z,61.04
2023-04-20T04:36:44.940Z,60.84
2023-04-20T04:39:14.083Z,60.79
2023-04-20T04:41:44.065Z,60.61
2023-04-20T04:44:21.389Z,60.73
2023-04-20T04:46:48.785Z,60.56
2023-04-20T04:49:16.308Z,60.60
2023-04-20T04:51:43.639Z,60.58
2023-04-20T04:54:11.257Z,60.64
2023-04-20T04:56:38.256Z,60.72
2023-04-20T04:59:05.211Z,60.60
2023-04-20T05:01:32.146Z,60.67
2023-04-20T05:03:59.300Z,60.80
2023-04-20T05:06:26.487Z,60.70
2023-04-20T05:08:53.408Z,60.72
2023-04-20T05:11:20.340Z,60.69
2023-04-20T05:13:48.587Z,60.79
2023-04-20T05:16:15.652Z,60.74
2023-04-20T05:18:42.505Z,60.93
2023-04-20T05:21:09.385Z,60.95
2023-04-20T05:23:36.467Z,61.13
2023-04-20T05:26:03.430Z,61.10
2023-04-20T05:28:30.445Z,61.21
2023-04-20T05:30:57.358Z,61.12
2023-04-20T05:33:25.407Z,60.98
2023-04-20T05:35:57.413Z,60.83
2023-04-20T05:38:25.618Z,60.83
2023-04-20T05:40:52.835Z,60.85
2023-04-20T05:43:19.803Z,60.88
2023-04-20T05:45:46.979Z,60.94
2023-04-20T05:48:13.984Z,60.77
2023-04-20T05:50:40.810Z,60.82
2023-04-20T05:53:07.705Z,60.92
2023-04-20T05:55:34.634Z,60.85
2023-04-20T05:58:01.875Z,60.84
2023-04-20T06:00:29.212Z,60.86
2023-04-20T06:02:56.351Z,60.86
2023-04-20T06:05:23.510Z,61.01
2023-04-20T06:07:50.526Z,60.94
2023-04-20T06:10:17.456Z,61.05
2023-04-20T06:12:44.437Z,61.14
2023-04-20T06:15:11.593Z,61.65
2023-04-20T06:17:41.180Z,61.93
2023-04-20T06:20:10.593Z,62.12
2023-04-20T06:22:42.416Z,61.88
2023-04-20T06:25:10.763Z,61.95
2023-04-20T06:27:37.858Z,61.72
2023-04-20T06:30:06.351Z,61.43
2023-04-20T06:32:33.501Z,61.56
2023-04-20T06:35:00.620Z,61.31
2023-04-20T06:37:28.208Z,61.36
2023-04-20T06:39:55.193Z,61.41
2023-04-20T06:42:22.911Z,61.33
2023-04-20T06:44:50.462Z,61.27
2023-04-20T06:47:17.368Z,61.24
2023-04-20T06:49:44.348Z,61.29
2023-04-20T06:52:11.364Z,61.30
2023-04-20T06:54:38.198Z,61.37
2023-04-20T06:57:05.445Z,61.51
2023-04-20T06:59:32.364Z,61.47
2023-04-20T07:01:59.453Z,61.63
2023-04-20T07:04:27.048Z,61.59
2023-04-20T07:06:54.468Z,61.49
2023-04-20T07:09:23.222Z,61.50
2023-04-20T07:11:50.256Z,61.30
2023-04-20T07:14:17.265Z,61.31
2023-04-20T07:16:44.381Z,61.32
2023-04-20T07:19:11.846Z,61.17
2023-04-20T07:21:38.795Z,61.24
2023-04-20T07:24:06.188Z,61.33
2023-04-20T07:26:33.019Z,61.13
2023-04-20T07:28:59.887Z,61.19
2023-04-20T07:31:26.814Z,61.21
2023-04-20T07:33:53.926Z,61.24
2023-04-20T07:36:23.606Z,61.26
2023-04-20T07:38:50.531Z,61.30
2023-04-20T07:41:17.570Z,61.37
2023-04-20T07:43:45.089Z,61.41
2023-04-20T07:46:20.586Z,61.58
2023-04-20T07:48:47.577Z,61.67
2023-04-20T07:51:14.575Z,61.59
2023-04-20T07:53:42.582Z,61.67
2023-04-20T07:56:09.483Z,61.50
2023-04-20T07:58:38.634Z,61.39
2023-04-20T08:01:06.232Z,61.52
2023-04-20T08:03:33.938Z,61.26
2023-04-20T08:06:01.214Z,60.82
2023-04-20T08:08:28.250Z,60.58
2023-04-20T08:10:58.176Z,60.41
2023-04-20T08:13:25.125Z,60.35
2023-04-20T08:15:52.086Z,60.39
2023-04-20T08:18:20.736Z,60.07
2023-04-20T08:20:48.361Z,60.11
2023-04-20T08:23:15.271Z,60.03
2023-04-20T08:25:42.196Z,59.93
2023-04-20T08:28:15.333Z,59.97
2023-04-20T08:30:47.082Z,59.83
2023-04-20T08:33:13.988Z,59.77
2023-04-20T08:35:41.221Z,59.78
2023-04-20T08:38:08.154Z,59.82
2023-04-20T08:40:37.262Z,59.68
2023-04-20T08:43:04.239Z,59.58
2023-04-20T08:45:31.354Z,59.54
2023-04-20T08:47:59.414Z,59.52
2023-04-20T08:50:26.699Z,59.56
2023-04-20T08:52:53.555Z,59.42
2023-04-20T08:55:20.605Z,59.40
2023-04-20T08:57:50.407Z,59.42
2023-04-20T09:00:17.745Z,59.39
2023-04-20T09:02:55.835Z,59.14
2023-04-20T09:05:30.930Z,59.29
2023-04-20T09:08:00.049Z,59.27
2023-04-20T09:10:38.517Z,59.24
2023-04-20T09:13:06.294Z,58.99
2023-04-20T09:15:33.317Z,59.03
2023-04-20T09:18:00.306Z,59.18
2023-04-20T09:20:32.421Z,59.06
2023-04-20T09:23:14.774Z,59.10
2023-04-20T09:25:43.645Z,58.98
2023-04-20T09:28:11.513Z,58.97
2023-04-20T09:30:49.439Z,58.93
2023-04-20T09:33:16.369Z,58.88
2023-04-20T09:35:44.873Z,58.89
2023-04-20T09:38:16.045Z,58.70
2023-04-20T09:40:42.989Z,58.97
2023-04-20T09:43:19.869Z,58.90
2023-04-20T09:45:46.945Z,58.93
2023-04-20T09:48:19.434Z,58.83
2023-04-20T09:50:50.107Z,58.87
2023-04-20T09:53:19.778Z,59.00
2023-04-20T09:55:50.596Z,58.88
2023-04-20T09:58:21.511Z,58.74
2023-04-20T10:00:49.342Z,58.89
2023-04-20T10:03:20.502Z,58.82
2023-04-20T10:05:48.113Z,58.81
2023-04-20T10:08:16.216Z,58.64
2023-04-20T10:10:45.308Z,58.61
2023-04-20T10:13:12.525Z,58.78
2023-04-20T10:15:40.969Z,58.70
2023-04-20T10:18:23.829Z,58.78
2023-04-20T10:20:52.709Z,58.81
2023-04-20T10:23:20.201Z,58.72
2023-04-20T10:26:01.965Z,58.71
2023-04-20T10:28:40.019Z,58.66
2023-04-20T10:31:08.831Z,58.76
2023-04-20T10:33:35.837Z,58.54
2023-04-20T10:36:02.892Z,58.73
2023-04-20T10:38:34.882Z,58.58
2023-04-20T10:41:11.628Z,58.65
2023-04-20T10:43:44.986Z,58.57
2023-04-20T10:46:15.690Z,58.63
2023-04-20T10:49:02.213Z,58.61
2023-04-20T10:51:29.463Z,58.49
2023-04-20T10:54:07.957Z,58.58
2023-04-20T10:56:39.097Z,58.55
2023-04-20T10:59:07.972Z,58.35
2023-04-20T11:01:35.058Z,58.47
2023-04-20T11:04:02.113Z,58.50
2023-04-20T11:06:29.246Z,58.48
2023-04-20T11:08:56.423Z,58.35
2023-04-20T11:11:25.672Z,58.57
2023-04-20T11:13:52.682Z,58.51
2023-04-20T11:16:19.903Z,58.47
2023-04-20T11:18:52.078Z,58.39
2023-04-20T11:21:20.263Z,58.44
2023-04-20T11:23:47.503Z,58.37
2023-04-20T11:26:14.927Z,58.42
2023-04-20T11:28:56.191Z,58.27
2023-04-20T11:31:24.056Z,58.41
2023-04-20T11:33:51.184Z,58.33
2023-04-20T11:36:23.340Z,58.32
2023-04-20T11:38:51.281Z,58.27
2023-04-20T11:41:18.515Z,58.29
2023-04-20T11:43:46.321Z,58.23
2023-04-20T11:46:18.796Z,58.27
2023-04-20T11:48:47.535Z,58.26
2023-04-20T11:51:15.327Z,58.26
2023-04-20T11:53:42.889Z,58.04
2023-04-20T11:56:10.079Z,58.16
2023-04-20T11:58:37.257Z,58.17
2023-04-20T12:01:05.666Z,58.18
2023-04-20T12:03:32.919Z,58.11
2023-04-20T12:06:00.831Z,57.99
2023-04-20T12:08:27.828Z,58.08
2023-04-20T12:10:56.765Z,57.91
2023-04-20T12:13:26.054Z,57.93
2023-04-20T12:15:53.014Z,58.00
2023-04-20T12:18:20.660Z,57.93
2023-04-20T12:20:47.664Z,57.90
2023-04-20T12:23:14.556Z,58.01
2023-04-20T12:25:42.098Z,57.91
2023-04-20T12:28:09.072Z,57.85
2023-04-20T12:30:36.181Z,57.87
2023-04-20T12:33:04.766Z,57.82
2023-04-20T12:35:31.727Z,57.83
2023-04-20T12:37:58.693Z,57.88
2023-04-20T12:40:25.675Z,57.77
2023-04-20T12:42:52.530Z,57.73
2023-04-20T12:45:19.592Z,57.81
2023-04-20T12:47:48.763Z,57.72
2023-04-20T12:50:15.942Z,57.62
2023-04-20T12:52:42.880Z,57.51
2023-04-20T12:55:11.427Z,57.55
2023-04-20T12:57:38.480Z,57.54
2023-04-20T13:00:06.842Z,57.53
2023-04-20T13:02:33.997Z,57.51
2023-04-20T13:05:00.988Z,57.57
2023-04-20T13:07:28.129Z,57.52
2023-04-20T13:09:55.102Z,57.64
2023-04-20T13:12:21.989Z,57.68
2023-04-20T13:14:48.946Z,57.62
2023-04-20T13:17:15.824Z,57.62
2023-04-20T13:19:42.741Z,57.50
2023-04-20T13:22:09.681Z,57.65
2023-04-20T13:24:36.612Z,57.49
2023-04-20T13:27:04.637Z,57.58
2023-04-20T13:29:31.680Z,57.54
2023-04-20T13:31:58.893Z,57.38
2023-04-20T13:34:25.935Z,57.54
2023-04-20T13:36:52.797Z,57.47
2023-04-20T13:39:21.063Z,57.50
2023-04-20T13:41:51.850Z,57.23
2023-04-20T13:44:19.092Z,57.22
2023-04-20T13:46:47.735Z,57.18
2023-04-20T13:49:18.303Z,57.25
2023-04-20T13:51:46.638Z,57.21
2023-04-20T13:54:31.602Z,57.21
2023-04-20T13:57:01.543Z,57.01
2023-04-20T13:59:31.950Z,57.09
2023-04-20T14:02:01.593Z,57.07
2023-04-20T14:04:32.205Z,57.09
2023-04-20T14:07:02.265Z,57.00
2023-04-20T14:09:32.098Z,57.05
2023-04-20T14:12:02.559Z,56.98
2023-04-20T14:14:39.089Z,56.99
2023-04-20T14:17:08.123Z,57.01
2023-04-20T14:19:41.476Z,56.95
2023-04-20T14:22:10.002Z,57.03
2023-04-20T14:24:36.937Z,56.95
2023-04-20T14:27:03.878Z,57.10
2023-04-20T14:29:30.878Z,56.98
2023-04-20T14:31:57.982Z,56.84
2023-04-20T14:34:25.040Z,56.94
2023-04-20T14:36:51.940Z,56.94
2023-04-20T14:39:21.777Z,56.99
2023-04-20T14:41:48.654Z,56.96
2023-04-20T14:44:15.820Z,56.92
2023-04-20T14:46:43.004Z,56.93
2023-04-20T14:49:10.725Z,56.84
2023-04-20T14:51:37.637Z,56.91
2023-04-20T14:54:04.545Z,56.78
2023-04-20T14:56:31.618Z,56.89
2023-04-20T14:58:59.749Z,57.04
2023-04-20T15:01:27.959Z,57.02
2023-04-20T15:03:55.175Z,57.05
2023-04-20T15:06:22.455Z,57.09
2023-04-20T15:08:49.460Z,56.92
2023-04-20T15:11:16.697Z,57.14
2023-04-20T15:13:44.939Z,57.16
2023-04-20T15:16:12.231Z,57.11
2023-04-20T15:18:39.134Z,56.96
2023-04-20T15:21:09.048Z,57.03
2023-04-20T15:23:36.465Z,57.05
2023-04-20T15:26:03.395Z,56.95
2023-04-20T15:28:30.455Z,56.90
2023-04-20T15:30:57.351Z,56.92
2023-04-20T15:33:24.394Z,56.80
2023-04-20T15:35:52.874Z,56.95
2023-04-20T15:38:21.668Z,56.93
2023-04-20T15:40:48.812Z,57.03
2023-04-20T15:43:15.861Z,57.06
2023-04-20T15:45:44.687Z,57.17
2023-04-20T15:48:13.661Z,57.19
2023-04-20T15:50:41.038Z,57.23
2023-04-20T15:53:07.980Z,57.25
2023-04-20T15:55:38.750Z,57.27
2023-04-20T15:58:05.660Z,57.36
2023-04-20T16:00:33.231Z,57.31
2023-04-20T16:03:01.908Z,57.19
2023-04-20T16:05:29.107Z,57.28
2023-04-20T16:07:56.089Z,57.34
2023-04-20T16:10:23.749Z,57.36
2023-04-20T16:12:50.706Z,57.41
2023-04-20T16:15:18.154Z,57.26
2023-04-20T16:17:48.547Z,57.31
2023-04-20T16:20:15.699Z,57.43
2023-04-20T16:22:42.750Z,57.27
2023-04-20T16:25:12.479Z,57.21
2023-04-20T16:27:41.761Z,57.23
2023-04-20T16:30:09.874Z,57.15
2023-04-20T16:32:36.891Z,57.34
2023-04-20T16:35:06.355Z,57.28
2023-04-20T16:37:34.924Z,57.30
2023-04-20T16:40:02.650Z,57.42
2023-04-20T16:42:29.558Z,57.39
2023-04-20T16:44:56.443Z,57.35
2023-04-20T16:47:23.381Z,57.36
2023-04-20T16:49:50.287Z,57.37
2023-04-20T16:52:17.456Z,57.23
2023-04-20T16:54:44.370Z,57.16
2023-04-20T16:57:11.316Z,57.16
2023-04-20T16:59:38.411Z,57.15
2023-04-20T17:02:05.693Z,57.22
2023-04-20T17:04:32.861Z,57.03
2023-04-20T17:06:59.830Z,56.98
2023-04-20T17:09:27.297Z,57.05
2023-04-20T17:11:54.164Z,56.90
2023-04-20T17:14:21.302Z,56.91
2023-04-20T17:16:48.277Z,56.95
2023-04-20T17:19:15.230Z,57.00
2023-04-20T17:21:44.206Z,56.95
2023-04-20T17:24:11.298Z,56.89
2023-04-20T17:26:38.177Z,56.82
2023-04-20T17:29:05.034Z,56.85
2023-04-20T17:31:33.547Z,56.78
2023-04-20T17:34:00.844Z,56.82
2023-04-20T17:36:28.281Z,56.76
2023-04-20T17:38:55.288Z,56.83
2023-04-20T17:41:22.431Z,56.93
2023-04-20T17:43:51.906Z,56.91
2023-04-20T17:46:18.883Z,56.73
2023-04-20T17:48:46.031Z,56.69
2023-04-20T17:51:14.370Z,56.79
2023-04-20T17:53:41.419Z,56.73
2023-04-20T17:56:08.374Z,56.68
2023-04-20T17:58:35.550Z,56.72
2023-04-20T18:01:03.451Z,56.69
2023-04-20T18:03:30.798Z,56.74
2023-04-20T18:05:57.953Z,56.82
2023-04-20T18:08:25.033Z,56.90
2023-04-20T18:10:52.079Z,56.98
2023-04-20T18:13:19.240Z,56.87
2023-04-20T18:15:46.433Z,56.90
2023-04-20T18:18:13.634Z,57.05
2023-04-20T18:20:40.770Z,56.95
2023-04-20T18:23:08.757Z,56.95
2023-04-20T18:25:35.834Z,57.06
2023-04-20T18:28:02.850Z,56.98
2023-04-20T18:30:29.787Z,57.07
2023-04-20T18:32:56.767Z,56.93
2023-04-20T18:35:23.985Z,57.08
2023-04-20T18:37:52.167Z,57.11
2023-04-20T18:40:19.616Z,57.01
2023-04-20T18:42:46.684Z,57.12
2023-04-20T18:45:13.871Z,57.17
2023-04-20T18:47:41.117Z,57.11
2023-04-20T18:50:08.453Z,57.27
2023-04-20T18:52:35.576Z,57.20
2023-04-20T18:55:02.671Z,57.24
2023-04-20T18:57:30.186Z,57.15
2023-04-20T18:59:57.123Z,57.13
2023-04-20T19:02:24.370Z,57.11
2023-04-20T19:04:51.734Z,56.95
2023-04-20T19:07:19.113Z,57.22
2023-04-20T19:09:46.132Z,57.18
2023-04-20T19:12:13.179Z,57.14
2023-04-20T19:14:40.014Z,57.13
2023-04-20T19:17:07.555Z,56.99
2023-04-20T19:19:34.905Z,56.99
2023-04-20T19:22:03.700Z,57.05
2023-04-20T19:24:32.326Z,56.97
2023-04-20T19:26:59.333Z,57.17
2023-04-20T19:29:26.299Z,57.17
2023-04-20T19:31:53.286Z,57.21
2023-04-20T19:34:21.833Z,57.19
2023-04-20T19:36:49.106Z,57.07
2023-04-20T19:39:16.026Z,57.03
2023-04-20T19:41:43.257Z,56.97
2023-04-20T19:44:12.221Z,57.03
2023-04-20T19:46:40.854Z,56.92
2023-04-20T19:49:07.892Z,57.06
2023-04-20T19:51:34.926Z,57.13
2023-04-20T19:54:03.622Z,57.23
2023-04-20T19:56:31.148Z,57.04
2023-04-20T19:58:58.091Z,57.21
2023-04-20T20:01:25.032Z,57.07
2023-04-20T20:03:52.932Z,56.99
2023-04-20T20:06:21.849Z,56.94
2023-04-20T20:08:49.098Z,57.04
2023-04-20T20:11:16.150Z,56.97
2023-04-20T20:13:44.476Z,57.12
2023-04-20T20:16:12.481Z,57.13
2023-04-20T20:18:39.640Z,57.08
2023-04-20T20:21:06.905Z,57.08
2023-04-20T20:23:34.035Z,56.98
2023-04-20T20:26:01.187Z,57.06
2023-04-20T20:28:28.334Z,57.15
2023-04-20T20:30:55.513Z,57.09
2023-04-20T20:33:22.655Z,57.03
2023-04-20T20:35:49.531Z,57.13
2023-04-20T20:38:18.024Z,57.18
2023-04-20T20:40:45.210Z,57.17
2023-04-20T20:43:13.177Z,57.15
2023-04-20T20:45:40.335Z,57.03
2023-04-20T20:48:07.348Z,57.06
2023-04-20T20:50:34.380Z,57.26
2023-04-20T20:53:01.220Z,57.32
2023-04-20T20:55:28.159Z,57.40
2023-04-20T20:57:55.024Z,57.35
2023-04-20T21:00:22.010Z,57.26
2023-04-20T21:02:49.015Z,57.30
2023-04-20T21:05:16.413Z,57.08
2023-04-20T21:07:43.757Z,57.06
2023-04-20T21:10:12.028Z,57.30
2023-04-20T21:12:39.095Z,57.52
2023-04-20T21:15:06.852Z,57.73
2023-04-20T21:17:34.156Z,57.96
2023-04-20T21:20:01.261Z,58.05
2023-04-20T21:22:30.052Z,58.31
2023-04-20T21:24:57.082Z,58.34
2023-04-20T21:27:24.426Z,58.53
2023-04-20T21:29:51.381Z,58.56
2023-04-20T21:32:18.749Z,58.68
2023-04-20T21:34:46.709Z,58.70
2023-04-20T21:37:14.077Z,58.90
2023-04-20T21:39:41.211Z,59.14
2023-04-20T21:42:08.082Z,59.11
2023-04-20T21:44:35.005Z,59.20
2023-04-20T21:47:02.820Z,59.41
2023-04-20T21:49:31.769Z,59.36
2023-04-20T21:51:59.207Z,59.49
2023-04-20T21:54:26.154Z,59.45
2023-04-20T21:56:53.108Z,59.45
2023-04-20T21:59:20.291Z,59.54
2023-04-20T22:01:47.759Z,59.77
2023-04-20T22:04:16.930Z,59.92
2023-04-20T22:06:44.102Z,60.09
2023-04-20T22:09:11.204Z,60.00
2023-04-20T22:11:38.157Z,59.94
2023-04-20T22:14:05.092Z,59.94
2023-04-20T22:16:34.137Z,59.97
2023-04-20T22:19:01.644Z,60.02
2023-04-20T22:21:28.695Z,60.20
2023-04-20T22:23:55.956Z,60.49
2023-04-20T22:26:22.884Z,60.51
2023-04-20T22:28:50.654Z,60.71
2023-04-20T22:31:17.533Z,61.22
2023-04-20T22:33:44.657Z,61.47
2023-04-20T22:36:11.694Z,61.77
2023-04-20T22:38:38.782Z,62.47
2023-04-20T22:41:05.903Z,62.66
2023-04-20T22:43:32.831Z,62.78
2023-04-20T22:45:59.877Z,62.67
2023-04-20T22:48:26.933Z,62.39
2023-04-20T22:50:53.877Z,62.20
2023-04-20T22:53:20.874Z,61.92
2023-04-20T22:55:47.867Z,62.11
2023-04-20T22:58:14.920Z,61.81
2023-04-20T23:00:42.225Z,61.59
2023-04-20T23:03:09.664Z,61.79
2023-04-20T23:05:36.858Z,62.06
2023-04-20T23:08:03.823Z,62.24
2023-04-20T23:10:30.773Z,62.56
2023-04-20T23:12:57.817Z,62.95
2023-04-20T23:15:24.902Z,63.47
2023-04-20T23:17:53.073Z,63.53
2023-04-20T23:20:20.286Z,63.34
2023-04-20T23:22:47.336Z,63.33
2023-04-20T23:25:14.278Z,63.07
2023-04-20T23:27:44.936Z,63.03
2023-04-20T23:30:12.681Z,62.96
2023-04-20T23:32:40.185Z,62.92
2023-04-20T23:35:08.660Z,62.99
2023-04-20T23:37:35.767Z,62.90
2023-04-20T23:40:07.016Z,62.90
2023-04-20T23:42:36.279Z,62.88
2023-04-20T23:45:07.059Z,62.97
2023-04-20T23:47:34.113Z,63.23
2023-04-20T23:50:01.154Z,63.31
2023-04-20T23:52:28.080Z,63.15
2023-04-20T23:54:54.972Z,63.20
2023-04-20T23:57:21.969Z,63.11
2023-04-20T23:59:49.128Z,62.89
